< Typhoon 197615 1976 Season Typhoon 197617 >
Typhoon 197616 (ELLEN)
General InformationTrack Information on Google Maps || Disaster Info.ResourceGoogle EarthGE AnimationAtom FeedGeoJSON
Detalied Best Track (Time Zone = UTC)
Year Month Day Hour Lat. Long. Pressure (hPa) Wind (kt) Class Image Chart
1976 8 20 06 13.5 130.5 1004 0 2 -- Chart
1976 8 20 12 14.0 131.0 1004 0 2 -- Chart
1976 8 20 18 14.5 131.5 1000 0 2 -- Chart
1976 8 21 00 15.1 130.5 994 0 9 -- Chart
1976 8 21 06 15.6 129.0 994 0 9 -- Chart
1976 8 21 12 16.3 127.4 994 0 9 -- Chart
1976 8 21 18 16.9 125.6 994 0 9 -- Chart
1976 8 22 00 17.4 124.2 994 0 9 -- Chart
1976 8 22 06 17.7 122.0 996 0 9 -- Chart
1976 8 22 12 18.0 121.0 996 0 9 -- Chart
1976 8 22 18 18.8 120.0 996 0 9 -- Chart
1976 8 23 00 19.4 119.0 996 0 9 -- Chart
1976 8 23 06 20.1 117.6 992 0 9 -- Chart
1976 8 23 12 20.6 116.9 992 0 9 -- Chart
1976 8 23 18 21.3 116.0 992 0 9 -- Chart
1976 8 24 00 22.3 114.8 992 0 9 -- Chart
1976 8 24 06 23.1 114.2 994 0 9 -- Chart
1976 8 24 12 23.6 113.1 996 0 2 -- Chart
1976 8 24 18 24.0 112.0 998 0 2 -- Chart
1976 8 25 00 24.5 111.0 1002 0 2 -- Chart
1976 8 25 06 25.0 109.5 1003 0 2 -- Chart
1976 8 25 12 26.0 108.0 1004 0 2 -- Chart
Japan Meteorological Agency Best Track Data | Correction Date : 1992-10-21
< Typhoon 197615 1976 Season Typhoon 197617 >

Help